sensor_id;sensor_type;location;lat;lon;timestamp;P1;durP1;ratioP1;P2;durP2;ratioP2
18259;SDS011;9256;52.236;5.712;2023-04-24T00:02:08;7.50;;;4.38;;
18259;SDS011;9256;52.236;5.712;2023-04-24T00:04:36;8.25;;;4.18;;
18259;SDS011;9256;52.236;5.712;2023-04-24T00:07:05;8.70;;;5.20;;
18259;SDS011;9256;52.236;5.712;2023-04-24T00:09:32;5.95;;;3.80;;
18259;SDS011;9256;52.236;5.712;2023-04-24T00:11:59;5.20;;;3.13;;
18259;SDS011;9256;52.236;5.712;2023-04-24T00:14:27;3.95;;;2.17;;
18259;SDS011;9256;52.236;5.712;2023-04-24T00:16:55;3.80;;;1.83;;
18259;SDS011;9256;52.236;5.712;2023-04-24T00:19:22;2.50;;;1.70;;
18259;SDS011;9256;52.236;5.712;2023-04-24T00:21:49;2.90;;;1.73;;
18259;SDS011;9256;52.236;5.712;2023-04-24T00:24:17;3.67;;;1.98;;
18259;SDS011;9256;52.236;5.712;2023-04-24T00:26:44;3.90;;;2.67;;
18259;SDS011;9256;52.236;5.712;2023-04-24T00:29:11;5.18;;;2.20;;
18259;SDS011;9256;52.236;5.712;2023-04-24T00:31:38;3.17;;;2.20;;
18259;SDS011;9256;52.236;5.712;2023-04-24T00:34:07;3.38;;;2.30;;
18259;SDS011;9256;52.236;5.712;2023-04-24T00:36:35;3.28;;;2.35;;
18259;SDS011;9256;52.236;5.712;2023-04-24T00:39:02;5.28;;;2.55;;
18259;SDS011;9256;52.236;5.712;2023-04-24T00:41:29;4.45;;;3.00;;
18259;SDS011;9256;52.236;5.712;2023-04-24T00:43:56;5.82;;;3.58;;
18259;SDS011;9256;52.236;5.712;2023-04-24T00:46:23;6.68;;;3.47;;
18259;SDS011;9256;52.236;5.712;2023-04-24T00:48:50;6.28;;;3.70;;
18259;SDS011;9256;52.236;5.712;2023-04-24T00:51:19;6.53;;;3.63;;
18259;SDS011;9256;52.236;5.712;2023-04-24T00:53:46;6.20;;;3.50;;
18259;SDS011;9256;52.236;5.712;2023-04-24T00:56:13;4.53;;;2.72;;
18259;SDS011;9256;52.236;5.712;2023-04-24T00:58:40;4.88;;;3.05;;
18259;SDS011;9256;52.236;5.712;2023-04-24T01:01:08;5.75;;;3.25;;
18259;SDS011;9256;52.236;5.712;2023-04-24T01:03:36;5.50;;;3.40;;
18259;SDS011;9256;52.236;5.712;2023-04-24T01:06:04;6.68;;;3.30;;
18259;SDS011;9256;52.236;5.712;2023-04-24T01:08:33;6.78;;;4.10;;
18259;SDS011;9256;52.236;5.712;2023-04-24T01:11:01;6.18;;;4.20;;
18259;SDS011;9256;52.236;5.712;2023-04-24T01:13:30;7.85;;;4.55;;
18259;SDS011;9256;52.236;5.712;2023-04-24T01:15:58;8.90;;;4.45;;
18259;SDS011;9256;52.236;5.712;2023-04-24T01:18:25;8.45;;;4.38;;
18259;SDS011;9256;52.236;5.712;2023-04-24T01:20:54;11.02;;;4.60;;
18259;SDS011;9256;52.236;5.712;2023-04-24T01:23:25;6.85;;;4.10;;
18259;SDS011;9256;52.236;5.712;2023-04-24T01:25:52;6.95;;;4.07;;
18259;SDS011;9256;52.236;5.712;2023-04-24T01:28:19;6.60;;;4.30;;
18259;SDS011;9256;52.236;5.712;2023-04-24T01:30:47;7.03;;;4.40;;
18259;SDS011;9256;52.236;5.712;2023-04-24T01:33:14;8.45;;;4.50;;
18259;SDS011;9256;52.236;5.712;2023-04-24T01:35:41;7.22;;;4.07;;
18259;SDS011;9256;52.236;5.712;2023-04-24T01:38:09;7.10;;;3.95;;
18259;SDS011;9256;52.236;5.712;2023-04-24T01:40:37;8.80;;;4.03;;
18259;SDS011;9256;52.236;5.712;2023-04-24T01:43:04;7.47;;;4.18;;
18259;SDS011;9256;52.236;5.712;2023-04-24T01:45:31;7.25;;;4.35;;
18259;SDS011;9256;52.236;5.712;2023-04-24T01:47:58;8.82;;;4.43;;
18259;SDS011;9256;52.236;5.712;2023-04-24T01:50:26;8.40;;;4.65;;
18259;SDS011;9256;52.236;5.712;2023-04-24T01:52:53;8.95;;;4.97;;
18259;SDS011;9256;52.236;5.712;2023-04-24T01:55:20;8.23;;;4.43;;
18259;SDS011;9256;52.236;5.712;2023-04-24T01:57:48;7.90;;;4.60;;
18259;SDS011;9256;52.236;5.712;2023-04-24T02:00:16;8.40;;;4.47;;
18259;SDS011;9256;52.236;5.712;2023-04-24T02:02:43;8.23;;;4.70;;
18259;SDS011;9256;52.236;5.712;2023-04-24T02:05:10;8.82;;;4.88;;
18259;SDS011;9256;52.236;5.712;2023-04-24T02:07:37;11.05;;;5.10;;
18259;SDS011;9256;52.236;5.712;2023-04-24T02:10:05;11.95;;;5.22;;
18259;SDS011;9256;52.236;5.712;2023-04-24T02:12:32;12.20;;;5.28;;
18259;SDS011;9256;52.236;5.712;2023-04-24T02:15:01;10.75;;;5.38;;
18259;SDS011;9256;52.236;5.712;2023-04-24T02:17:28;10.40;;;5.70;;
18259;SDS011;9256;52.236;5.712;2023-04-24T02:19:55;12.75;;;5.53;;
18259;SDS011;9256;52.236;5.712;2023-04-24T02:22:22;13.32;;;5.95;;
18259;SDS011;9256;52.236;5.712;2023-04-24T02:24:49;12.57;;;5.85;;
18259;SDS011;9256;52.236;5.712;2023-04-24T02:27:16;14.98;;;5.85;;
18259;SDS011;9256;52.236;5.712;2023-04-24T02:29:43;11.95;;;6.00;;
18259;SDS011;9256;52.236;5.712;2023-04-24T02:32:11;12.88;;;5.78;;
18259;SDS011;9256;52.236;5.712;2023-04-24T02:34:40;10.93;;;5.63;;
18259;SDS011;9256;52.236;5.712;2023-04-24T02:37:07;12.63;;;5.82;;
18259;SDS011;9256;52.236;5.712;2023-04-24T02:39:34;13.82;;;6.30;;
18259;SDS011;9256;52.236;5.712;2023-04-24T02:42:01;12.07;;;6.13;;
18259;SDS011;9256;52.236;5.712;2023-04-24T02:44:28;13.77;;;6.05;;
18259;SDS011;9256;52.236;5.712;2023-04-24T02:46:55;15.80;;;5.88;;
18259;SDS011;9256;52.236;5.712;2023-04-24T02:49:23;15.38;;;6.30;;
18259;SDS011;9256;52.236;5.712;2023-04-24T02:51:51;13.10;;;6.18;;
18259;SDS011;9256;52.236;5.712;2023-04-24T02:54:17;13.43;;;6.43;;
18259;SDS011;9256;52.236;5.712;2023-04-24T02:56:44;12.70;;;5.90;;
18259;SDS011;9256;52.236;5.712;2023-04-24T02:59:11;14.35;;;5.90;;
18259;SDS011;9256;52.236;5.712;2023-04-24T03:01:38;12.57;;;5.63;;
18259;SDS011;9256;52.236;5.712;2023-04-24T03:04:05;12.20;;;5.70;;
18259;SDS011;9256;52.236;5.712;2023-04-24T03:06:33;12.88;;;5.65;;
18259;SDS011;9256;52.236;5.712;2023-04-24T03:09:01;13.90;;;5.75;;
18259;SDS011;9256;52.236;5.712;2023-04-24T03:11:28;12.32;;;5.68;;
18259;SDS011;9256;52.236;5.712;2023-04-24T03:13:55;11.00;;;4.95;;
18259;SDS011;9256;52.236;5.712;2023-04-24T03:16:22;14.50;;;5.68;;
18259;SDS011;9256;52.236;5.712;2023-04-24T03:18:49;11.40;;;5.43;;
18259;SDS011;9256;52.236;5.712;2023-04-24T03:21:16;11.05;;;5.18;;
18259;SDS011;9256;52.236;5.712;2023-04-24T03:23:44;10.60;;;5.38;;
18259;SDS011;9256;52.236;5.712;2023-04-24T03:26:11;10.80;;;5.15;;
18259;SDS011;9256;52.236;5.712;2023-04-24T03:28:38;12.25;;;5.15;;
18259;SDS011;9256;52.236;5.712;2023-04-24T03:31:05;12.27;;;5.75;;
18259;SDS011;9256;52.236;5.712;2023-04-24T03:33:31;10.48;;;5.32;;
18259;SDS011;9256;52.236;5.712;2023-04-24T03:35:58;11.65;;;5.38;;
18259;SDS011;9256;52.236;5.712;2023-04-24T03:38:25;13.15;;;5.60;;
18259;SDS011;9256;52.236;5.712;2023-04-24T03:40:53;14.70;;;5.72;;
18259;SDS011;9256;52.236;5.712;2023-04-24T03:43:20;13.65;;;5.90;;
18259;SDS011;9256;52.236;5.712;2023-04-24T03:45:47;15.43;;;5.53;;
18259;SDS011;9256;52.236;5.712;2023-04-24T03:48:14;11.45;;;5.13;;
18259;SDS011;9256;52.236;5.712;2023-04-24T03:50:41;11.27;;;5.60;;
18259;SDS011;9256;52.236;5.712;2023-04-24T03:53:08;10.15;;;4.72;;
18259;SDS011;9256;52.236;5.712;2023-04-24T03:55:35;10.52;;;4.80;;
18259;SDS011;9256;52.236;5.712;2023-04-24T03:58:03;10.13;;;4.40;;
18259;SDS011;9256;52.236;5.712;2023-04-24T04:00:30;9.75;;;4.18;;
18259;SDS011;9256;52.236;5.712;2023-04-24T04:02:58;8.50;;;3.90;;
18259;SDS011;9256;52.236;5.712;2023-04-24T04:05:25;9.38;;;4.57;;
18259;SDS011;9256;52.236;5.712;2023-04-24T04:07:52;9.05;;;4.30;;
18259;SDS011;9256;52.236;5.712;2023-04-24T04:10:19;12.98;;;4.97;;
18259;SDS011;9256;52.236;5.712;2023-04-24T04:12:46;9.18;;;4.18;;
18259;SDS011;9256;52.236;5.712;2023-04-24T04:15:14;8.40;;;3.92;;
18259;SDS011;9256;52.236;5.712;2023-04-24T04:17:41;10.20;;;4.25;;
18259;SDS011;9256;52.236;5.712;2023-04-24T04:20:08;8.43;;;3.80;;
18259;SDS011;9256;52.236;5.712;2023-04-24T04:22:36;8.20;;;3.78;;
18259;SDS011;9256;52.236;5.712;2023-04-24T04:25:03;8.80;;;3.60;;
18259;SDS011;9256;52.236;5.712;2023-04-24T04:27:30;6.75;;;3.22;;
18259;SDS011;9256;52.236;5.712;2023-04-24T04:29:57;9.75;;;3.92;;
18259;SDS011;9256;52.236;5.712;2023-04-24T04:32:27;8.60;;;3.22;;
18259;SDS011;9256;52.236;5.712;2023-04-24T04:34:54;9.55;;;3.40;;
18259;SDS011;9256;52.236;5.712;2023-04-24T04:37:21;6.85;;;3.08;;
18259;SDS011;9256;52.236;5.712;2023-04-24T04:39:48;6.15;;;2.75;;
18259;SDS011;9256;52.236;5.712;2023-04-24T04:42:15;8.15;;;3.10;;
18259;SDS011;9256;52.236;5.712;2023-04-24T04:44:42;5.28;;;2.60;;
18259;SDS011;9256;52.236;5.712;2023-04-24T04:47:09;8.38;;;2.83;;
18259;SDS011;9256;52.236;5.712;2023-04-24T04:49:38;5.78;;;2.50;;
18259;SDS011;9256;52.236;5.712;2023-04-24T04:52:06;5.63;;;2.65;;
18259;SDS011;9256;52.236;5.712;2023-04-24T04:54:33;5.18;;;2.47;;
18259;SDS011;9256;52.236;5.712;2023-04-24T04:57:00;6.35;;;2.63;;
18259;SDS011;9256;52.236;5.712;2023-04-24T04:59:27;6.05;;;2.47;;
18259;SDS011;9256;52.236;5.712;2023-04-24T05:01:54;5.70;;;2.67;;
18259;SDS011;9256;52.236;5.712;2023-04-24T05:04:21;5.40;;;2.50;;
18259;SDS011;9256;52.236;5.712;2023-04-24T05:06:49;6.43;;;2.78;;
18259;SDS011;9256;52.236;5.712;2023-04-24T05:09:17;8.30;;;3.40;;
18259;SDS011;9256;52.236;5.712;2023-04-24T05:11:44;6.70;;;2.78;;
18259;SDS011;9256;52.236;5.712;2023-04-24T05:14:11;5.95;;;2.90;;
18259;SDS011;9256;52.236;5.712;2023-04-24T05:16:38;5.55;;;2.78;;
18259;SDS011;9256;52.236;5.712;2023-04-24T05:19:06;7.90;;;2.70;;
18259;SDS011;9256;52.236;5.712;2023-04-24T05:21:32;7.45;;;3.72;;
18259;SDS011;9256;52.236;5.712;2023-04-24T05:24:01;6.30;;;2.50;;
18259;SDS011;9256;52.236;5.712;2023-04-24T05:26:28;5.97;;;2.58;;
18259;SDS011;9256;52.236;5.712;2023-04-24T05:28:55;5.88;;;2.17;;
18259;SDS011;9256;52.236;5.712;2023-04-24T05:31:25;5.22;;;2.20;;
18259;SDS011;9256;52.236;5.712;2023-04-24T05:33:52;4.10;;;1.92;;
18259;SDS011;9256;52.236;5.712;2023-04-24T05:36:18;4.38;;;2.00;;
18259;SDS011;9256;52.236;5.712;2023-04-24T05:38:45;3.63;;;1.95;;
18259;SDS011;9256;52.236;5.712;2023-04-24T05:41:14;4.18;;;1.95;;
18259;SDS011;9256;52.236;5.712;2023-04-24T05:43:41;4.93;;;1.85;;
18259;SDS011;9256;52.236;5.712;2023-04-24T05:46:08;4.18;;;1.95;;
18259;SDS011;9256;52.236;5.712;2023-04-24T05:48:34;4.45;;;1.95;;
18259;SDS011;9256;52.236;5.712;2023-04-24T05:51:01;6.85;;;2.20;;
18259;SDS011;9256;52.236;5.712;2023-04-24T05:53:28;5.85;;;2.08;;
18259;SDS011;9256;52.236;5.712;2023-04-24T05:55:55;4.63;;;2.10;;
18259;SDS011;9256;52.236;5.712;2023-04-24T05:58:24;6.63;;;2.20;;
18259;SDS011;9256;52.236;5.712;2023-04-24T06:00:50;13.85;;;2.58;;
18259;SDS011;9256;52.236;5.712;2023-04-24T06:03:18;15.35;;;3.28;;
18259;SDS011;9256;52.236;5.712;2023-04-24T06:05:45;8.10;;;2.67;;
18259;SDS011;9256;52.236;5.712;2023-04-24T06:08:11;6.55;;;2.55;;
18259;SDS011;9256;52.236;5.712;2023-04-24T06:10:38;6.53;;;2.20;;
18259;SDS011;9256;52.236;5.712;2023-04-24T06:13:06;5.47;;;2.40;;
18259;SDS011;9256;52.236;5.712;2023-04-24T06:15:34;5.00;;;2.17;;
18259;SDS011;9256;52.236;5.712;2023-04-24T06:18:01;4.95;;;2.38;;
18259;SDS011;9256;52.236;5.712;2023-04-24T06:20:28;5.07;;;2.53;;
18259;SDS011;9256;52.236;5.712;2023-04-24T06:22:55;5.28;;;2.30;;
18259;SDS011;9256;52.236;5.712;2023-04-24T06:25:24;6.60;;;2.15;;
18259;SDS011;9256;52.236;5.712;2023-04-24T06:27:51;5.50;;;2.72;;
18259;SDS011;9256;52.236;5.712;2023-04-24T06:30:18;6.32;;;2.60;;
18259;SDS011;9256;52.236;5.712;2023-04-24T06:32:46;5.32;;;2.35;;
18259;SDS011;9256;52.236;5.712;2023-04-24T06:35:13;4.97;;;2.30;;
18259;SDS011;9256;52.236;5.712;2023-04-24T06:37:40;6.65;;;2.50;;
18259;SDS011;9256;52.236;5.712;2023-04-24T06:40:09;5.35;;;2.30;;
18259;SDS011;9256;52.236;5.712;2023-04-24T06:42:36;9.77;;;2.80;;
18259;SDS011;9256;52.236;5.712;2023-04-24T06:45:03;5.30;;;2.40;;
18259;SDS011;9256;52.236;5.712;2023-04-24T06:47:31;5.13;;;2.63;;
18259;SDS011;9256;52.236;5.712;2023-04-24T06:49:59;6.97;;;2.30;;
18259;SDS011;9256;52.236;5.712;2023-04-24T06:52:26;4.28;;;2.13;;
18259;SDS011;9256;52.236;5.712;2023-04-24T06:54:59;5.10;;;2.17;;
18259;SDS011;9256;52.236;5.712;2023-04-24T06:57:27;4.78;;;2.15;;
18259;SDS011;9256;52.236;5.712;2023-04-24T06:59:54;4.65;;;2.17;;
18259;SDS011;9256;52.236;5.712;2023-04-24T07:02:21;5.15;;;2.20;;
18259;SDS011;9256;52.236;5.712;2023-04-24T07:04:48;4.15;;;2.15;;
18259;SDS011;9256;52.236;5.712;2023-04-24T07:07:19;6.18;;;2.10;;
18259;SDS011;9256;52.236;5.712;2023-04-24T07:09:46;4.60;;;1.95;;
18259;SDS011;9256;52.236;5.712;2023-04-24T07:12:13;6.55;;;1.90;;
18259;SDS011;9256;52.236;5.712;2023-04-24T07:14:41;8.82;;;3.30;;
18259;SDS011;9256;52.236;5.712;2023-04-24T07:17:08;13.20;;;4.35;;
18259;SDS011;9256;52.236;5.712;2023-04-24T07:19:37;11.70;;;4.32;;
18259;SDS011;9256;52.236;5.712;2023-04-24T07:22:04;17.88;;;5.35;;
18259;SDS011;9256;52.236;5.712;2023-04-24T07:24:32;14.07;;;5.55;;
18259;SDS011;9256;52.236;5.712;2023-04-24T07:26:59;16.45;;;6.25;;
18259;SDS011;9256;52.236;5.712;2023-04-24T07:29:27;17.70;;;6.50;;
18259;SDS011;9256;52.236;5.712;2023-04-24T07:31:54;17.23;;;5.97;;
18259;SDS011;9256;52.236;5.712;2023-04-24T07:34:21;18.08;;;6.50;;
18259;SDS011;9256;52.236;5.712;2023-04-24T07:36:48;17.10;;;6.55;;
18259;SDS011;9256;52.236;5.712;2023-04-24T07:39:15;19.15;;;7.45;;
18259;SDS011;9256;52.236;5.712;2023-04-24T07:41:43;20.02;;;7.25;;
18259;SDS011;9256;52.236;5.712;2023-04-24T07:44:10;19.15;;;7.35;;
18259;SDS011;9256;52.236;5.712;2023-04-24T07:46:37;22.52;;;7.43;;
18259;SDS011;9256;52.236;5.712;2023-04-24T07:49:04;24.92;;;8.02;;
18259;SDS011;9256;52.236;5.712;2023-04-24T07:51:31;24.83;;;8.82;;
18259;SDS011;9256;52.236;5.712;2023-04-24T07:54:03;21.20;;;7.95;;
18259;SDS011;9256;52.236;5.712;2023-04-24T07:56:30;23.77;;;9.20;;
18259;SDS011;9256;52.236;5.712;2023-04-24T07:58:59;23.00;;;7.97;;
18259;SDS011;9256;52.236;5.712;2023-04-24T08:01:27;20.33;;;8.23;;
18259;SDS011;9256;52.236;5.712;2023-04-24T08:03:54;19.85;;;7.68;;
18259;SDS011;9256;52.236;5.712;2023-04-24T08:06:21;30.02;;;8.68;;
18259;SDS011;9256;52.236;5.712;2023-04-24T08:08:48;27.85;;;8.07;;
18259;SDS011;9256;52.236;5.712;2023-04-24T08:11:16;22.77;;;7.70;;
18259;SDS011;9256;52.236;5.712;2023-04-24T08:13:43;26.38;;;10.45;;
18259;SDS011;9256;52.236;5.712;2023-04-24T08:16:11;20.70;;;8.35;;
18259;SDS011;9256;52.236;5.712;2023-04-24T08:18:38;25.42;;;8.52;;
18259;SDS011;9256;52.236;5.712;2023-04-24T08:21:05;25.17;;;7.88;;
18259;SDS011;9256;52.236;5.712;2023-04-24T08:23:32;22.75;;;7.95;;
18259;SDS011;9256;52.236;5.712;2023-04-24T08:25:59;26.08;;;7.82;;
18259;SDS011;9256;52.236;5.712;2023-04-24T08:28:26;23.42;;;7.82;;
18259;SDS011;9256;52.236;5.712;2023-04-24T08:30:56;20.42;;;7.63;;
18259;SDS011;9256;52.236;5.712;2023-04-24T08:33:24;21.02;;;8.05;;
18259;SDS011;9256;52.236;5.712;2023-04-24T08:35:51;22.60;;;7.22;;
18259;SDS011;9256;52.236;5.712;2023-04-24T08:38:19;21.65;;;7.93;;
18259;SDS011;9256;52.236;5.712;2023-04-24T08:40:46;26.10;;;7.32;;
18259;SDS011;9256;52.236;5.712;2023-04-24T08:43:14;24.38;;;7.60;;
18259;SDS011;9256;52.236;5.712;2023-04-24T08:45:42;20.02;;;7.65;;
18259;SDS011;9256;52.236;5.712;2023-04-24T08:48:09;20.80;;;7.97;;
18259;SDS011;9256;52.236;5.712;2023-04-24T08:50:38;18.88;;;7.43;;
18259;SDS011;9256;52.236;5.712;2023-04-24T08:53:07;22.42;;;7.93;;
18259;SDS011;9256;52.236;5.712;2023-04-24T08:55:37;20.15;;;7.50;;
18259;SDS011;9256;52.236;5.712;2023-04-24T08:58:06;20.33;;;6.78;;
18259;SDS011;9256;52.236;5.712;2023-04-24T09:00:34;16.05;;;5.10;;
18259;SDS011;9256;52.236;5.712;2023-04-24T09:03:02;13.88;;;4.40;;
18259;SDS011;9256;52.236;5.712;2023-04-24T09:05:30;12.02;;;4.30;;
18259;SDS011;9256;52.236;5.712;2023-04-24T09:08:00;23.00;;;3.70;;
18259;SDS011;9256;52.236;5.712;2023-04-24T09:10:31;14.63;;;3.75;;
18259;SDS011;9256;52.236;5.712;2023-04-24T09:12:59;19.00;;;3.60;;
18259;SDS011;9256;52.236;5.712;2023-04-24T09:15:27;20.40;;;4.10;;
18259;SDS011;9256;52.236;5.712;2023-04-24T09:17:55;14.48;;;3.70;;
18259;SDS011;9256;52.236;5.712;2023-04-24T09:20:22;15.90;;;3.53;;
18259;SDS011;9256;52.236;5.712;2023-04-24T09:22:52;15.73;;;3.28;;
18259;SDS011;9256;52.236;5.712;2023-04-24T09:25:22;14.75;;;3.30;;
18259;SDS011;9256;52.236;5.712;2023-04-24T09:27:50;20.48;;;4.15;;
18259;SDS011;9256;52.236;5.712;2023-04-24T09:30:21;19.90;;;3.00;;
18259;SDS011;9256;52.236;5.712;2023-04-24T09:32:48;18.42;;;3.42;;
18259;SDS011;9256;52.236;5.712;2023-04-24T09:35:15;10.88;;;3.00;;
18259;SDS011;9256;52.236;5.712;2023-04-24T09:37:43;21.02;;;3.55;;
18259;SDS011;9256;52.236;5.712;2023-04-24T09:40:14;16.02;;;3.17;;
18259;SDS011;9256;52.236;5.712;2023-04-24T09:42:44;17.67;;;3.67;;
18259;SDS011;9256;52.236;5.712;2023-04-24T09:45:12;80.05;;;17.90;;
18259;SDS011;9256;52.236;5.712;2023-04-24T09:47:39;14.55;;;2.85;;
18259;SDS011;9256;52.236;5.712;2023-04-24T09:50:11;13.63;;;2.60;;
18259;SDS011;9256;52.236;5.712;2023-04-24T09:52:40;12.18;;;2.63;;
18259;SDS011;9256;52.236;5.712;2023-04-24T09:55:13;15.75;;;2.83;;
18259;SDS011;9256;52.236;5.712;2023-04-24T09:57:50;15.32;;;2.95;;
18259;SDS011;9256;52.236;5.712;2023-04-24T10:00:19;15.98;;;3.08;;
18259;SDS011;9256;52.236;5.712;2023-04-24T10:02:50;12.40;;;2.40;;
18259;SDS011;9256;52.236;5.712;2023-04-24T10:05:22;12.45;;;2.20;;
18259;SDS011;9256;52.236;5.712;2023-04-24T10:07:50;10.35;;;2.53;;
18259;SDS011;9256;52.236;5.712;2023-04-24T10:10:17;10.05;;;2.35;;
18259;SDS011;9256;52.236;5.712;2023-04-24T10:12:44;8.35;;;2.17;;
18259;SDS011;9256;52.236;5.712;2023-04-24T10:15:13;6.13;;;1.80;;
18259;SDS011;9256;52.236;5.712;2023-04-24T10:17:45;7.13;;;2.05;;
18259;SDS011;9256;52.236;5.712;2023-04-24T10:20:17;10.60;;;2.30;;
18259;SDS011;9256;52.236;5.712;2023-04-24T10:22:45;9.70;;;2.42;;
18259;SDS011;9256;52.236;5.712;2023-04-24T10:25:16;9.10;;;2.60;;
18259;SDS011;9256;52.236;5.712;2023-04-24T10:27:45;17.92;;;3.17;;
18259;SDS011;9256;52.236;5.712;2023-04-24T10:30:14;10.68;;;2.70;;
18259;SDS011;9256;52.236;5.712;2023-04-24T10:32:41;13.27;;;2.60;;
18259;SDS011;9256;52.236;5.712;2023-04-24T10:35:08;10.23;;;2.30;;
18259;SDS011;9256;52.236;5.712;2023-04-24T10:37:36;11.98;;;2.20;;
18259;SDS011;9256;52.236;5.712;2023-04-24T10:40:05;11.00;;;2.10;;
18259;SDS011;9256;52.236;5.712;2023-04-24T10:42:34;6.97;;;1.90;;
18259;SDS011;9256;52.236;5.712;2023-04-24T10:45:04;12.02;;;2.30;;
18259;SDS011;9256;52.236;5.712;2023-04-24T10:47:40;19.17;;;2.17;;
18259;SDS011;9256;52.236;5.712;2023-04-24T10:50:08;11.32;;;2.40;;
18259;SDS011;9256;52.236;5.712;2023-04-24T10:52:45;12.45;;;2.70;;
18259;SDS011;9256;52.236;5.712;2023-04-24T10:55:12;7.53;;;1.50;;
18259;SDS011;9256;52.236;5.712;2023-04-24T10:57:40;10.88;;;1.80;;
18259;SDS011;9256;52.236;5.712;2023-04-24T11:00:28;5.78;;;1.60;;
18259;SDS011;9256;52.236;5.712;2023-04-24T11:02:57;9.98;;;1.70;;
18259;SDS011;9256;52.236;5.712;2023-04-24T11:08:38;7.57;;;1.67;;
18259;SDS011;9256;52.236;5.712;2023-04-24T11:11:09;4.93;;;1.58;;
18259;SDS011;9256;52.236;5.712;2023-04-24T11:16:37;5.10;;;1.25;;
18259;SDS011;9256;52.236;5.712;2023-04-24T11:19:18;13.50;;;2.15;;
18259;SDS011;9256;52.236;5.712;2023-04-24T11:21:48;6.78;;;2.03;;
18259;SDS011;9256;52.236;5.712;2023-04-24T11:24:23;7.97;;;2.63;;
18259;SDS011;9256;52.236;5.712;2023-04-24T11:26:51;5.55;;;2.05;;
18259;SDS011;9256;52.236;5.712;2023-04-24T11:29:19;8.95;;;1.90;;
18259;SDS011;9256;52.236;5.712;2023-04-24T11:31:47;4.30;;;1.30;;
18259;SDS011;9256;52.236;5.712;2023-04-24T11:34:17;6.20;;;1.40;;
18259;SDS011;9256;52.236;5.712;2023-04-24T11:36:45;5.03;;;1.10;;
18259;SDS011;9256;52.236;5.712;2023-04-24T11:39:13;2.97;;;1.10;;
18259;SDS011;9256;52.236;5.712;2023-04-24T11:41:40;2.78;;;0.80;;
18259;SDS011;9256;52.236;5.712;2023-04-24T11:44:08;3.75;;;0.90;;
18259;SDS011;9256;52.236;5.712;2023-04-24T11:46:36;2.45;;;0.85;;
18259;SDS011;9256;52.236;5.712;2023-04-24T11:49:05;2.72;;;0.80;;
18259;SDS011;9256;52.236;5.712;2023-04-24T11:51:33;2.95;;;0.70;;
18259;SDS011;9256;52.236;5.712;2023-04-24T11:54:00;3.67;;;0.80;;
18259;SDS011;9256;52.236;5.712;2023-04-24T11:56:28;3.33;;;0.90;;
18259;SDS011;9256;52.236;5.712;2023-04-24T11:58:55;4.88;;;1.15;;
18259;SDS011;9256;52.236;5.712;2023-04-24T12:01:22;2.05;;;0.90;;
18259;SDS011;9256;52.236;5.712;2023-04-24T12:03:49;15.45;;;4.50;;
18259;SDS011;9256;52.236;5.712;2023-04-24T12:06:18;3.30;;;1.10;;
18259;SDS011;9256;52.236;5.712;2023-04-24T12:08:47;4.13;;;0.80;;
18259;SDS011;9256;52.236;5.712;2023-04-24T12:11:15;4.15;;;1.00;;
18259;SDS011;9256;52.236;5.712;2023-04-24T12:13:44;3.90;;;0.80;;
18259;SDS011;9256;52.236;5.712;2023-04-24T12:16:11;4.32;;;1.00;;
18259;SDS011;9256;52.236;5.712;2023-04-24T12:18:42;3.00;;;1.02;;
18259;SDS011;9256;52.236;5.712;2023-04-24T12:21:17;2.35;;;1.10;;
18259;SDS011;9256;52.236;5.712;2023-04-24T12:23:47;2.03;;;0.70;;
18259;SDS011;9256;52.236;5.712;2023-04-24T12:26:16;3.47;;;1.10;;
18259;SDS011;9256;52.236;5.712;2023-04-24T12:28:46;4.15;;;0.80;;
18259;SDS011;9256;52.236;5.712;2023-04-24T12:31:14;2.70;;;0.88;;
18259;SDS011;9256;52.236;5.712;2023-04-24T12:33:41;4.63;;;0.95;;
18259;SDS011;9256;52.236;5.712;2023-04-24T12:36:09;4.00;;;1.00;;
18259;SDS011;9256;52.236;5.712;2023-04-24T12:38:37;5.25;;;0.90;;
18259;SDS011;9256;52.236;5.712;2023-04-24T12:41:08;5.35;;;1.30;;
18259;SDS011;9256;52.236;5.712;2023-04-24T12:43:36;3.83;;;0.80;;
18259;SDS011;9256;52.236;5.712;2023-04-24T12:46:03;5.10;;;0.90;;
18259;SDS011;9256;52.236;5.712;2023-04-24T12:48:30;2.38;;;0.82;;
18259;SDS011;9256;52.236;5.712;2023-04-24T12:50:58;5.70;;;1.02;;
18259;SDS011;9256;52.236;5.712;2023-04-24T12:53:27;5.38;;;1.27;;
18259;SDS011;9256;52.236;5.712;2023-04-24T12:55:56;4.43;;;0.90;;
18259;SDS011;9256;52.236;5.712;2023-04-24T12:58:24;5.63;;;1.10;;
18259;SDS011;9256;52.236;5.712;2023-04-24T13:00:51;5.00;;;1.05;;
18259;SDS011;9256;52.236;5.712;2023-04-24T13:03:18;4.55;;;1.20;;
18259;SDS011;9256;52.236;5.712;2023-04-24T13:05:47;3.25;;;0.90;;
18259;SDS011;9256;52.236;5.712;2023-04-24T13:08:14;6.60;;;0.93;;
18259;SDS011;9256;52.236;5.712;2023-04-24T13:10:41;5.80;;;1.08;;
18259;SDS011;9256;52.236;5.712;2023-04-24T13:13:08;6.57;;;1.70;;
18259;SDS011;9256;52.236;5.712;2023-04-24T13:15:36;3.85;;;1.10;;
18259;SDS011;9256;52.236;5.712;2023-04-24T13:18:03;5.07;;;1.10;;
18259;SDS011;9256;52.236;5.712;2023-04-24T13:20:30;11.57;;;1.67;;
18259;SDS011;9256;52.236;5.712;2023-04-24T13:22:57;4.55;;;1.20;;
18259;SDS011;9256;52.236;5.712;2023-04-24T13:25:25;7.57;;;1.20;;
18259;SDS011;9256;52.236;5.712;2023-04-24T13:27:52;12.43;;;1.27;;
18259;SDS011;9256;52.236;5.712;2023-04-24T13:30:19;7.70;;;1.40;;
18259;SDS011;9256;52.236;5.712;2023-04-24T13:32:47;5.45;;;1.70;;
18259;SDS011;9256;52.236;5.712;2023-04-24T13:35:14;6.95;;;1.42;;
18259;SDS011;9256;52.236;5.712;2023-04-24T13:37:41;10.43;;;1.50;;
18259;SDS011;9256;52.236;5.712;2023-04-24T13:40:08;11.63;;;1.58;;
18259;SDS011;9256;52.236;5.712;2023-04-24T13:42:36;11.18;;;1.60;;
18259;SDS011;9256;52.236;5.712;2023-04-24T13:45:03;6.88;;;1.58;;
18259;SDS011;9256;52.236;5.712;2023-04-24T13:47:31;14.60;;;1.80;;
18259;SDS011;9256;52.236;5.712;2023-04-24T13:49:59;12.98;;;2.55;;
18259;SDS011;9256;52.236;5.712;2023-04-24T13:52:26;11.77;;;1.77;;
18259;SDS011;9256;52.236;5.712;2023-04-24T13:54:53;12.93;;;2.40;;
18259;SDS011;9256;52.236;5.712;2023-04-24T13:57:20;8.50;;;1.88;;
18259;SDS011;9256;52.236;5.712;2023-04-24T13:59:47;13.73;;;2.30;;
18259;SDS011;9256;52.236;5.712;2023-04-24T14:02:14;11.20;;;2.25;;
18259;SDS011;9256;52.236;5.712;2023-04-24T14:04:41;18.80;;;2.35;;
18259;SDS011;9256;52.236;5.712;2023-04-24T14:07:09;12.13;;;2.10;;
18259;SDS011;9256;52.236;5.712;2023-04-24T14:09:36;12.98;;;1.90;;
18259;SDS011;9256;52.236;5.712;2023-04-24T14:12:03;11.10;;;2.65;;
18259;SDS011;9256;52.236;5.712;2023-04-24T14:14:30;11.93;;;2.00;;
18259;SDS011;9256;52.236;5.712;2023-04-24T14:16:57;16.45;;;2.13;;
18259;SDS011;9256;52.236;5.712;2023-04-24T14:19:24;8.60;;;1.92;;
18259;SDS011;9256;52.236;5.712;2023-04-24T14:21:51;9.38;;;2.05;;
18259;SDS011;9256;52.236;5.712;2023-04-24T14:24:20;12.38;;;2.13;;
18259;SDS011;9256;52.236;5.712;2023-04-24T14:26:47;14.93;;;3.88;;
18259;SDS011;9256;52.236;5.712;2023-04-24T14:29:13;16.63;;;2.33;;
18259;SDS011;9256;52.236;5.712;2023-04-24T14:31:41;5.70;;;1.55;;
18259;SDS011;9256;52.236;5.712;2023-04-24T14:34:08;9.18;;;1.90;;
18259;SDS011;9256;52.236;5.712;2023-04-24T14:36:35;10.63;;;1.90;;
18259;SDS011;9256;52.236;5.712;2023-04-24T14:39:02;9.02;;;2.10;;
18259;SDS011;9256;52.236;5.712;2023-04-24T14:41:33;16.08;;;1.92;;
18259;SDS011;9256;52.236;5.712;2023-04-24T14:44:01;9.52;;;2.47;;
18259;SDS011;9256;52.236;5.712;2023-04-24T14:46:28;5.90;;;1.70;;
18259;SDS011;9256;52.236;5.712;2023-04-24T14:48:56;6.88;;;1.42;;
18259;SDS011;9256;52.236;5.712;2023-04-24T14:51:23;7.72;;;1.77;;
18259;SDS011;9256;52.236;5.712;2023-04-24T14:53:50;13.98;;;4.65;;
18259;SDS011;9256;52.236;5.712;2023-04-24T14:56:17;11.27;;;2.10;;
18259;SDS011;9256;52.236;5.712;2023-04-24T14:58:46;6.20;;;1.73;;
18259;SDS011;9256;52.236;5.712;2023-04-24T15:01:13;11.73;;;2.67;;
18259;SDS011;9256;52.236;5.712;2023-04-24T15:03:40;9.00;;;2.33;;
18259;SDS011;9256;52.236;5.712;2023-04-24T15:06:07;9.60;;;2.17;;